sensor_id;sensor_type;location;lat;lon;timestamp;P1;durP1;ratioP1;P2;durP2;ratioP2
59366;SDS011;45163;47.690;11.770;2022-12-07T00:01:07;8.27;;;4.17;;
59366;SDS011;45163;47.690;11.770;2022-12-07T00:03:35;5.17;;;4.03;;
59366;SDS011;45163;47.690;11.770;2022-12-07T00:06:02;5.97;;;4.43;;
59366;SDS011;45163;47.690;11.770;2022-12-07T00:08:30;6.10;;;4.10;;
59366;SDS011;45163;47.690;11.770;2022-12-07T00:11:00;5.23;;;4.27;;
59366;SDS011;45163;47.690;11.770;2022-12-07T00:13:37;6.93;;;4.40;;
59366;SDS011;45163;47.690;11.770;2022-12-07T00:16:14;5.73;;;4.57;;
59366;SDS011;45163;47.690;11.770;2022-12-07T00:18:42;5.37;;;4.10;;
59366;SDS011;45163;47.690;11.770;2022-12-07T00:21:09;5.93;;;4.47;;
59366;SDS011;45163;47.690;11.770;2022-12-07T00:23:36;6.70;;;4.90;;
59366;SDS011;45163;47.690;11.770;2022-12-07T00:26:15;7.57;;;4.93;;
59366;SDS011;45163;47.690;11.770;2022-12-07T00:28:47;5.50;;;4.77;;
59366;SDS011;45163;47.690;11.770;2022-12-07T00:31:14;7.07;;;5.17;;
59366;SDS011;45163;47.690;11.770;2022-12-07T00:33:42;6.37;;;4.70;;
59366;SDS011;45163;47.690;11.770;2022-12-07T00:36:09;5.73;;;4.63;;
59366;SDS011;45163;47.690;11.770;2022-12-07T00:38:37;7.10;;;4.93;;
59366;SDS011;45163;47.690;11.770;2022-12-07T00:41:05;6.57;;;4.97;;
59366;SDS011;45163;47.690;11.770;2022-12-07T00:43:52;6.63;;;4.77;;
59366;SDS011;45163;47.690;11.770;2022-12-07T00:46:19;7.90;;;5.30;;
59366;SDS011;45163;47.690;11.770;2022-12-07T00:48:46;10.00;;;5.40;;
59366;SDS011;45163;47.690;11.770;2022-12-07T00:51:14;7.17;;;5.00;;
59366;SDS011;45163;47.690;11.770;2022-12-07T00:53:41;5.80;;;4.40;;
59366;SDS011;45163;47.690;11.770;2022-12-07T00:56:08;5.93;;;4.70;;
59366;SDS011;45163;47.690;11.770;2022-12-07T00:58:35;6.83;;;4.80;;
59366;SDS011;45163;47.690;11.770;2022-12-07T01:01:02;9.00;;;5.40;;
59366;SDS011;45163;47.690;11.770;2022-12-07T01:03:29;6.60;;;4.80;;
59366;SDS011;45163;47.690;11.770;2022-12-07T01:05:55;6.80;;;4.73;;
59366;SDS011;45163;47.690;11.770;2022-12-07T01:08:21;6.53;;;4.43;;
59366;SDS011;45163;47.690;11.770;2022-12-07T01:10:49;5.53;;;4.60;;
59366;SDS011;45163;47.690;11.770;2022-12-07T01:13:22;7.67;;;5.23;;
59366;SDS011;45163;47.690;11.770;2022-12-07T01:15:48;7.00;;;5.43;;
59366;SDS011;45163;47.690;11.770;2022-12-07T01:18:14;8.17;;;5.30;;
59366;SDS011;45163;47.690;11.770;2022-12-07T01:20:40;6.63;;;5.10;;
59366;SDS011;45163;47.690;11.770;2022-12-07T01:23:06;7.40;;;5.63;;
59366;SDS011;45163;47.690;11.770;2022-12-07T01:25:32;7.37;;;5.20;;
59366;SDS011;45163;47.690;11.770;2022-12-07T01:27:58;6.60;;;5.37;;
59366;SDS011;45163;47.690;11.770;2022-12-07T01:30:24;6.53;;;5.13;;
59366;SDS011;45163;47.690;11.770;2022-12-07T01:32:50;7.13;;;5.30;;
59366;SDS011;45163;47.690;11.770;2022-12-07T01:35:16;8.47;;;5.37;;
59366;SDS011;45163;47.690;11.770;2022-12-07T01:37:42;7.50;;;5.47;;
59366;SDS011;45163;47.690;11.770;2022-12-07T01:40:08;7.07;;;5.53;;
59366;SDS011;45163;47.690;11.770;2022-12-07T01:42:35;6.33;;;4.90;;
59366;SDS011;45163;47.690;11.770;2022-12-07T01:48:05;7.73;;;5.07;;
59366;SDS011;45163;47.690;11.770;2022-12-07T01:50:32;6.67;;;5.03;;
59366;SDS011;45163;47.690;11.770;2022-12-07T01:53:00;6.83;;;5.50;;
59366;SDS011;45163;47.690;11.770;2022-12-07T01:55:28;8.67;;;5.37;;
59366;SDS011;45163;47.690;11.770;2022-12-07T01:57:55;6.97;;;5.17;;
59366;SDS011;45163;47.690;11.770;2022-12-07T02:00:21;7.53;;;5.77;;
59366;SDS011;45163;47.690;11.770;2022-12-07T02:02:49;8.50;;;5.70;;
59366;SDS011;45163;47.690;11.770;2022-12-07T02:05:20;6.43;;;5.13;;
59366;SDS011;45163;47.690;11.770;2022-12-07T02:07:48;7.33;;;5.67;;
59366;SDS011;45163;47.690;11.770;2022-12-07T02:10:17;6.20;;;5.10;;
59366;SDS011;45163;47.690;11.770;2022-12-07T02:12:52;6.63;;;5.10;;
59366;SDS011;45163;47.690;11.770;2022-12-07T02:15:24;7.77;;;5.30;;
59366;SDS011;45163;47.690;11.770;2022-12-07T02:20:54;6.73;;;5.23;;
59366;SDS011;45163;47.690;11.770;2022-12-07T02:31:29;6.83;;;4.90;;
59366;SDS011;45163;47.690;11.770;2022-12-07T02:33:59;8.40;;;5.70;;
59366;SDS011;45163;47.690;11.770;2022-12-07T02:36:36;6.80;;;5.53;;
59366;SDS011;45163;47.690;11.770;2022-12-07T02:39:15;7.17;;;5.13;;
59366;SDS011;45163;47.690;11.770;2022-12-07T02:41:47;7.03;;;5.67;;
59366;SDS011;45163;47.690;11.770;2022-12-07T02:44:20;7.93;;;5.63;;
59366;SDS011;45163;47.690;11.770;2022-12-07T02:47:03;7.47;;;5.43;;
59366;SDS011;45163;47.690;11.770;2022-12-07T02:49:32;9.93;;;6.67;;
59366;SDS011;45163;47.690;11.770;2022-12-07T02:51:58;8.37;;;5.93;;
59366;SDS011;45163;47.690;11.770;2022-12-07T02:54:24;9.43;;;6.57;;
59366;SDS011;45163;47.690;11.770;2022-12-07T02:56:52;9.90;;;7.10;;
59366;SDS011;45163;47.690;11.770;2022-12-07T03:13:24;9.10;;;6.27;;
59366;SDS011;45163;47.690;11.770;2022-12-07T03:15:55;7.83;;;6.27;;
59366;SDS011;45163;47.690;11.770;2022-12-07T03:18:24;8.53;;;6.17;;
59366;SDS011;45163;47.690;11.770;2022-12-07T03:20:53;6.77;;;5.40;;
59366;SDS011;45163;47.690;11.770;2022-12-07T03:23:22;7.10;;;5.70;;
59366;SDS011;45163;47.690;11.770;2022-12-07T03:25:52;8.87;;;5.87;;
59366;SDS011;45163;47.690;11.770;2022-12-07T03:28:24;9.27;;;6.50;;
59366;SDS011;45163;47.690;11.770;2022-12-07T03:30:56;8.87;;;6.53;;
59366;SDS011;45163;47.690;11.770;2022-12-07T03:33:31;9.80;;;6.97;;
59366;SDS011;45163;47.690;11.770;2022-12-07T03:36:16;8.47;;;6.83;;
59366;SDS011;45163;47.690;11.770;2022-12-07T03:38:50;10.63;;;7.07;;
59366;SDS011;45163;47.690;11.770;2022-12-07T03:41:28;8.90;;;7.03;;
59366;SDS011;45163;47.690;11.770;2022-12-07T03:43:57;9.47;;;6.97;;
59366;SDS011;45163;47.690;11.770;2022-12-07T03:54:51;9.03;;;7.20;;
59366;SDS011;45163;47.690;11.770;2022-12-07T03:57:18;9.77;;;7.80;;
59366;SDS011;45163;47.690;11.770;2022-12-07T03:59:46;11.03;;;7.80;;
59366;SDS011;45163;47.690;11.770;2022-12-07T04:02:13;8.73;;;6.90;;
59366;SDS011;45163;47.690;11.770;2022-12-07T04:04:40;11.17;;;8.17;;
59366;SDS011;45163;47.690;11.770;2022-12-07T04:07:07;10.23;;;7.60;;
59366;SDS011;45163;47.690;11.770;2022-12-07T04:09:34;10.73;;;7.80;;
59366;SDS011;45163;47.690;11.770;2022-12-07T04:12:00;10.50;;;7.37;;
59366;SDS011;45163;47.690;11.770;2022-12-07T04:14:26;12.53;;;8.40;;
59366;SDS011;45163;47.690;11.770;2022-12-07T04:16:53;10.23;;;7.63;;
59366;SDS011;45163;47.690;11.770;2022-12-07T04:19:24;10.60;;;7.43;;
59366;SDS011;45163;47.690;11.770;2022-12-07T04:21:52;8.63;;;6.93;;
59366;SDS011;45163;47.690;11.770;2022-12-07T04:24:19;10.97;;;7.17;;
59366;SDS011;45163;47.690;11.770;2022-12-07T04:26:46;13.07;;;8.13;;
59366;SDS011;45163;47.690;11.770;2022-12-07T04:29:12;17.53;;;10.60;;
59366;SDS011;45163;47.690;11.770;2022-12-07T04:31:39;15.63;;;11.13;;
59366;SDS011;45163;47.690;11.770;2022-12-07T04:34:06;15.57;;;10.73;;
59366;SDS011;45163;47.690;11.770;2022-12-07T04:36:33;16.70;;;11.10;;
59366;SDS011;45163;47.690;11.770;2022-12-07T04:38:59;16.97;;;11.30;;
59366;SDS011;45163;47.690;11.770;2022-12-07T04:41:26;16.27;;;10.80;;
59366;SDS011;45163;47.690;11.770;2022-12-07T04:43:53;15.17;;;10.60;;
59366;SDS011;45163;47.690;11.770;2022-12-07T04:46:20;14.80;;;10.90;;
59366;SDS011;45163;47.690;11.770;2022-12-07T04:48:46;16.60;;;11.10;;
59366;SDS011;45163;47.690;11.770;2022-12-07T04:51:12;17.63;;;11.33;;
59366;SDS011;45163;47.690;11.770;2022-12-07T04:53:38;16.37;;;11.30;;
59366;SDS011;45163;47.690;11.770;2022-12-07T04:56:04;16.67;;;10.40;;
59366;SDS011;45163;47.690;11.770;2022-12-07T04:58:30;21.43;;;11.30;;
59366;SDS011;45163;47.690;11.770;2022-12-07T05:00:56;16.57;;;11.80;;
59366;SDS011;45163;47.690;11.770;2022-12-07T05:03:22;15.57;;;11.17;;
59366;SDS011;45163;47.690;11.770;2022-12-07T05:05:48;15.97;;;10.90;;
59366;SDS011;45163;47.690;11.770;2022-12-07T05:08:15;18.30;;;12.27;;
59366;SDS011;45163;47.690;11.770;2022-12-07T05:10:41;16.40;;;11.97;;
59366;SDS011;45163;47.690;11.770;2022-12-07T05:13:07;18.00;;;11.33;;
59366;SDS011;45163;47.690;11.770;2022-12-07T05:15:33;18.53;;;11.70;;
59366;SDS011;45163;47.690;11.770;2022-12-07T05:17:59;18.80;;;11.10;;
59366;SDS011;45163;47.690;11.770;2022-12-07T05:20:25;17.60;;;11.10;;
59366;SDS011;45163;47.690;11.770;2022-12-07T05:22:51;22.03;;;12.60;;
59366;SDS011;45163;47.690;11.770;2022-12-07T05:25:17;18.87;;;10.83;;
59366;SDS011;45163;47.690;11.770;2022-12-07T05:27:43;14.97;;;10.57;;
59366;SDS011;45163;47.690;11.770;2022-12-07T05:30:09;13.90;;;10.10;;
59366;SDS011;45163;47.690;11.770;2022-12-07T05:32:35;13.40;;;8.93;;
59366;SDS011;45163;47.690;11.770;2022-12-07T05:35:01;11.73;;;8.70;;
59366;SDS011;45163;47.690;11.770;2022-12-07T05:37:27;13.77;;;9.73;;
59366;SDS011;45163;47.690;11.770;2022-12-07T05:39:53;13.33;;;9.83;;
59366;SDS011;45163;47.690;11.770;2022-12-07T05:42:19;13.63;;;8.90;;
59366;SDS011;45163;47.690;11.770;2022-12-07T05:44:45;17.60;;;11.37;;
59366;SDS011;45163;47.690;11.770;2022-12-07T05:47:12;13.93;;;10.10;;
59366;SDS011;45163;47.690;11.770;2022-12-07T05:49:39;14.90;;;10.20;;
59366;SDS011;45163;47.690;11.770;2022-12-07T05:52:06;14.93;;;10.17;;
59366;SDS011;45163;47.690;11.770;2022-12-07T05:54:33;14.93;;;10.47;;
59366;SDS011;45163;47.690;11.770;2022-12-07T05:56:59;14.60;;;10.03;;
59366;SDS011;45163;47.690;11.770;2022-12-07T05:59:25;14.87;;;10.50;;
59366;SDS011;45163;47.690;11.770;2022-12-07T06:02:00;14.43;;;10.63;;
59366;SDS011;45163;47.690;11.770;2022-12-07T06:04:29;16.03;;;11.03;;
59366;SDS011;45163;47.690;11.770;2022-12-07T06:06:57;15.17;;;11.20;;
59366;SDS011;45163;47.690;11.770;2022-12-07T06:09:24;14.67;;;10.83;;
59366;SDS011;45163;47.690;11.770;2022-12-07T06:11:51;14.00;;;10.07;;
59366;SDS011;45163;47.690;11.770;2022-12-07T06:14:36;14.73;;;10.50;;
59366;SDS011;45163;47.690;11.770;2022-12-07T06:17:02;16.50;;;10.97;;
59366;SDS011;45163;47.690;11.770;2022-12-07T06:19:29;18.33;;;11.20;;
59366;SDS011;45163;47.690;11.770;2022-12-07T06:21:55;23.37;;;11.73;;
59366;SDS011;45163;47.690;11.770;2022-12-07T06:24:21;18.23;;;12.50;;
59366;SDS011;45163;47.690;11.770;2022-12-07T06:26:47;15.47;;;11.23;;
59366;SDS011;45163;47.690;11.770;2022-12-07T06:29:13;16.87;;;10.63;;
59366;SDS011;45163;47.690;11.770;2022-12-07T06:31:39;13.90;;;9.90;;
59366;SDS011;45163;47.690;11.770;2022-12-07T06:34:07;14.87;;;10.53;;
59366;SDS011;45163;47.690;11.770;2022-12-07T06:36:38;15.57;;;10.43;;
59366;SDS011;45163;47.690;11.770;2022-12-07T06:39:07;14.83;;;10.20;;
59366;SDS011;45163;47.690;11.770;2022-12-07T06:41:35;18.33;;;11.43;;
59366;SDS011;45163;47.690;11.770;2022-12-07T06:44:04;19.10;;;11.43;;
59366;SDS011;45163;47.690;11.770;2022-12-07T06:46:31;17.10;;;11.63;;
59366;SDS011;45163;47.690;11.770;2022-12-07T06:48:58;19.80;;;12.57;;
59366;SDS011;45163;47.690;11.770;2022-12-07T06:51:24;18.53;;;13.00;;
59366;SDS011;45163;47.690;11.770;2022-12-07T06:53:50;17.60;;;12.10;;
59366;SDS011;45163;47.690;11.770;2022-12-07T06:56:16;21.50;;;13.93;;
59366;SDS011;45163;47.690;11.770;2022-12-07T06:58:42;17.97;;;11.93;;
59366;SDS011;45163;47.690;11.770;2022-12-07T07:01:11;16.80;;;11.37;;
59366;SDS011;45163;47.690;11.770;2022-12-07T07:03:39;18.90;;;12.10;;
59366;SDS011;45163;47.690;11.770;2022-12-07T07:06:05;20.77;;;12.93;;
59366;SDS011;45163;47.690;11.770;2022-12-07T07:08:33;18.77;;;12.23;;
59366;SDS011;45163;47.690;11.770;2022-12-07T07:11:00;19.20;;;12.00;;
59366;SDS011;45163;47.690;11.770;2022-12-07T07:13:26;15.83;;;11.20;;
59366;SDS011;45163;47.690;11.770;2022-12-07T07:15:53;16.70;;;11.30;;
59366;SDS011;45163;47.690;11.770;2022-12-07T07:18:19;15.53;;;10.17;;
59366;SDS011;45163;47.690;11.770;2022-12-07T07:20:45;15.23;;;9.50;;
59366;SDS011;45163;47.690;11.770;2022-12-07T07:23:11;12.43;;;8.23;;
59366;SDS011;45163;47.690;11.770;2022-12-07T07:25:37;9.87;;;7.03;;
59366;SDS011;45163;47.690;11.770;2022-12-07T07:28:03;6.80;;;5.17;;
59366;SDS011;45163;47.690;11.770;2022-12-07T07:30:29;6.53;;;5.13;;
59366;SDS011;45163;47.690;11.770;2022-12-07T07:32:56;4.97;;;3.87;;
59366;SDS011;45163;47.690;11.770;2022-12-07T07:35:29;4.10;;;3.33;;
59366;SDS011;45163;47.690;11.770;2022-12-07T07:37:56;5.33;;;3.70;;
59366;SDS011;45163;47.690;11.770;2022-12-07T07:40:22;3.20;;;2.90;;
59366;SDS011;45163;47.690;11.770;2022-12-07T07:42:49;5.00;;;3.63;;
59366;SDS011;45163;47.690;11.770;2022-12-07T07:45:16;4.67;;;3.80;;
59366;SDS011;45163;47.690;11.770;2022-12-07T07:47:42;4.23;;;3.60;;
59366;SDS011;45163;47.690;11.770;2022-12-07T07:50:09;7.33;;;3.97;;
59366;SDS011;45163;47.690;11.770;2022-12-07T07:52:35;5.83;;;4.10;;
59366;SDS011;45163;47.690;11.770;2022-12-07T07:55:01;5.17;;;4.30;;
59366;SDS011;45163;47.690;11.770;2022-12-07T07:57:28;6.17;;;4.40;;
59366;SDS011;45163;47.690;11.770;2022-12-07T07:59:54;6.83;;;4.30;;
59366;SDS011;45163;47.690;11.770;2022-12-07T08:02:20;5.20;;;3.93;;
59366;SDS011;45163;47.690;11.770;2022-12-07T08:04:47;5.63;;;4.27;;
59366;SDS011;45163;47.690;11.770;2022-12-07T08:07:13;5.77;;;4.20;;
59366;SDS011;45163;47.690;11.770;2022-12-07T08:09:40;5.70;;;3.77;;
59366;SDS011;45163;47.690;11.770;2022-12-07T08:12:06;6.37;;;4.17;;
59366;SDS011;45163;47.690;11.770;2022-12-07T08:14:32;5.57;;;4.40;;
59366;SDS011;45163;47.690;11.770;2022-12-07T08:16:59;5.83;;;4.33;;
59366;SDS011;45163;47.690;11.770;2022-12-07T08:19:26;6.07;;;4.10;;
59366;SDS011;45163;47.690;11.770;2022-12-07T08:21:52;5.63;;;4.10;;
59366;SDS011;45163;47.690;11.770;2022-12-07T08:24:18;4.70;;;4.20;;
59366;SDS011;45163;47.690;11.770;2022-12-07T08:26:44;5.97;;;4.23;;
59366;SDS011;45163;47.690;11.770;2022-12-07T08:29:10;6.97;;;4.10;;
59366;SDS011;45163;47.690;11.770;2022-12-07T08:31:36;8.40;;;4.83;;
59366;SDS011;45163;47.690;11.770;2022-12-07T08:34:02;6.20;;;4.63;;
59366;SDS011;45163;47.690;11.770;2022-12-07T08:36:28;5.17;;;4.20;;
59366;SDS011;45163;47.690;11.770;2022-12-07T08:38:54;6.63;;;4.30;;
59366;SDS011;45163;47.690;11.770;2022-12-07T08:41:20;5.30;;;4.00;;
59366;SDS011;45163;47.690;11.770;2022-12-07T08:43:46;6.87;;;4.27;;
59366;SDS011;45163;47.690;11.770;2022-12-07T08:46:19;5.00;;;3.83;;
59366;SDS011;45163;47.690;11.770;2022-12-07T08:48:50;6.13;;;4.17;;
59366;SDS011;45163;47.690;11.770;2022-12-07T08:51:37;4.70;;;3.93;;
59366;SDS011;45163;47.690;11.770;2022-12-07T08:54:05;5.43;;;4.17;;
59366;SDS011;45163;47.690;11.770;2022-12-07T08:56:34;9.10;;;4.80;;
59366;SDS011;45163;47.690;11.770;2022-12-07T08:59:01;4.90;;;3.97;;
59366;SDS011;45163;47.690;11.770;2022-12-07T09:01:27;5.57;;;4.30;;
59366;SDS011;45163;47.690;11.770;2022-12-07T09:03:54;8.70;;;4.90;;
59366;SDS011;45163;47.690;11.770;2022-12-07T09:06:20;7.93;;;4.43;;
59366;SDS011;45163;47.690;11.770;2022-12-07T09:08:46;6.23;;;4.43;;
59366;SDS011;45163;47.690;11.770;2022-12-07T09:11:15;9.13;;;4.40;;
59366;SDS011;45163;47.690;11.770;2022-12-07T09:13:41;4.97;;;4.20;;
59366;SDS011;45163;47.690;11.770;2022-12-07T09:16:07;4.93;;;3.90;;
59366;SDS011;45163;47.690;11.770;2022-12-07T09:18:33;5.43;;;3.97;;
59366;SDS011;45163;47.690;11.770;2022-12-07T09:20:59;9.80;;;3.97;;
59366;SDS011;45163;47.690;11.770;2022-12-07T09:23:25;5.67;;;4.33;;
59366;SDS011;45163;47.690;11.770;2022-12-07T09:25:51;4.73;;;3.43;;
59366;SDS011;45163;47.690;11.770;2022-12-07T09:28:17;3.77;;;3.30;;
59366;SDS011;45163;47.690;11.770;2022-12-07T09:30:47;4.07;;;3.00;;
59366;SDS011;45163;47.690;11.770;2022-12-07T09:33:13;4.37;;;2.90;;
59366;SDS011;45163;47.690;11.770;2022-12-07T09:35:46;6.17;;;3.10;;
59366;SDS011;45163;47.690;11.770;2022-12-07T09:38:12;4.87;;;3.13;;
59366;SDS011;45163;47.690;11.770;2022-12-07T09:40:39;4.80;;;3.37;;
59366;SDS011;45163;47.690;11.770;2022-12-07T09:43:11;6.43;;;3.37;;
59366;SDS011;45163;47.690;11.770;2022-12-07T09:45:40;3.93;;;2.97;;
59366;SDS011;45163;47.690;11.770;2022-12-07T09:48:13;4.63;;;2.93;;
59366;SDS011;45163;47.690;11.770;2022-12-07T09:50:45;5.07;;;3.00;;
59366;SDS011;45163;47.690;11.770;2022-12-07T09:53:14;3.27;;;2.63;;
59366;SDS011;45163;47.690;11.770;2022-12-07T09:55:46;3.20;;;2.57;;
59366;SDS011;45163;47.690;11.770;2022-12-07T09:58:17;2.60;;;2.30;;
59366;SDS011;45163;47.690;11.770;2022-12-07T10:00:47;3.40;;;2.37;;
59366;SDS011;45163;47.690;11.770;2022-12-07T10:03:14;4.87;;;2.70;;
59366;SDS011;45163;47.690;11.770;2022-12-07T10:05:42;3.33;;;2.47;;
59366;SDS011;45163;47.690;11.770;2022-12-07T10:08:11;11.03;;;6.13;;
59366;SDS011;45163;47.690;11.770;2022-12-07T10:10:39;4.50;;;3.40;;
59366;SDS011;45163;47.690;11.770;2022-12-07T10:13:13;3.23;;;2.87;;
59366;SDS011;45163;47.690;11.770;2022-12-07T10:18:21;5.97;;;4.40;;
59366;SDS011;45163;47.690;11.770;2022-12-07T10:26:50;7.07;;;4.33;;
59366;SDS011;45163;47.690;11.770;2022-12-07T10:29:22;6.63;;;3.67;;
59366;SDS011;45163;47.690;11.770;2022-12-07T10:32:01;6.40;;;3.70;;
59366;SDS011;45163;47.690;11.770;2022-12-07T10:34:29;6.93;;;3.50;;
59366;SDS011;45163;47.690;11.770;2022-12-07T10:42:20;5.80;;;4.30;;
59366;SDS011;45163;47.690;11.770;2022-12-07T10:44:49;5.50;;;4.27;;
59366;SDS011;45163;47.690;11.770;2022-12-07T10:47:33;13.37;;;4.73;;
59366;SDS011;45163;47.690;11.770;2022-12-07T10:53:00;5.33;;;4.27;;
59366;SDS011;45163;47.690;11.770;2022-12-07T10:58:39;5.93;;;4.53;;
59366;SDS011;45163;47.690;11.770;2022-12-07T11:01:27;6.30;;;5.40;;
59366;SDS011;45163;47.690;11.770;2022-12-07T11:04:18;9.73;;;5.97;;
59366;SDS011;45163;47.690;11.770;2022-12-07T11:06:53;6.60;;;5.37;;
59366;SDS011;45163;47.690;11.770;2022-12-07T11:09:47;6.40;;;5.47;;
59366;SDS011;45163;47.690;11.770;2022-12-07T11:15:21;7.80;;;5.07;;
59366;SDS011;45163;47.690;11.770;2022-12-07T11:26:19;10.33;;;5.30;;
59366;SDS011;45163;47.690;11.770;2022-12-07T11:36:55;8.67;;;4.57;;
59366;SDS011;45163;47.690;11.770;2022-12-07T11:42:33;6.93;;;4.87;;
59366;SDS011;45163;47.690;11.770;2022-12-07T11:55:49;12.73;;;4.57;;
59366;SDS011;45163;47.690;11.770;2022-12-07T12:07:07;10.47;;;5.03;;
59366;SDS011;45163;47.690;11.770;2022-12-07T12:09:41;7.57;;;3.67;;
59366;SDS011;45163;47.690;11.770;2022-12-07T12:20:51;4.73;;;3.53;;
59366;SDS011;45163;47.690;11.770;2022-12-07T12:23:42;5.20;;;3.87;;
59366;SDS011;45163;47.690;11.770;2022-12-07T12:26:16;4.87;;;3.73;;
59366;SDS011;45163;47.690;11.770;2022-12-07T12:33:54;6.07;;;3.90;;
59366;SDS011;45163;47.690;11.770;2022-12-07T12:41:58;6.23;;;3.80;;
59366;SDS011;45163;47.690;11.770;2022-12-07T12:46:56;4.20;;;3.77;;
59366;SDS011;45163;47.690;11.770;2022-12-07T12:54:57;5.93;;;3.93;;
59366;SDS011;45163;47.690;11.770;2022-12-07T12:57:30;4.63;;;3.90;;
59366;SDS011;45163;47.690;11.770;2022-12-07T12:59:57;5.43;;;3.93;;
59366;SDS011;45163;47.690;11.770;2022-12-07T13:02:28;6.03;;;3.87;;
59366;SDS011;45163;47.690;11.770;2022-12-07T13:15:38;4.83;;;3.40;;
59366;SDS011;45163;47.690;11.770;2022-12-07T13:20:49;7.53;;;4.20;;
59366;SDS011;45163;47.690;11.770;2022-12-07T13:23:19;7.97;;;4.47;;
59366;SDS011;45163;47.690;11.770;2022-12-07T13:25:51;7.30;;;4.93;;
59366;SDS011;45163;47.690;11.770;2022-12-07T13:28:22;7.50;;;5.33;;
59366;SDS011;45163;47.690;11.770;2022-12-07T13:31:02;7.50;;;4.97;;
59366;SDS011;45163;47.690;11.770;2022-12-07T13:33:36;7.40;;;4.80;;
59366;SDS011;45163;47.690;11.770;2022-12-07T13:36:03;5.73;;;4.40;;
59366;SDS011;45163;47.690;11.770;2022-12-07T13:38:30;6.53;;;4.10;;
59366;SDS011;45163;47.690;11.770;2022-12-07T13:43:30;5.23;;;4.20;;
59366;SDS011;45163;47.690;11.770;2022-12-07T13:45:57;6.30;;;3.57;;
59366;SDS011;45163;47.690;11.770;2022-12-07T13:48:36;4.97;;;3.73;;
59366;SDS011;45163;47.690;11.770;2022-12-07T13:51:16;7.07;;;4.30;;
59366;SDS011;45163;47.690;11.770;2022-12-07T13:53:54;6.27;;;3.80;;
59366;SDS011;45163;47.690;11.770;2022-12-07T13:56:27;4.43;;;3.53;;
59366;SDS011;45163;47.690;11.770;2022-12-07T13:59:00;3.73;;;3.37;;
59366;SDS011;45163;47.690;11.770;2022-12-07T14:01:27;4.90;;;3.60;;
59366;SDS011;45163;47.690;11.770;2022-12-07T14:03:56;4.37;;;3.73;;
59366;SDS011;45163;47.690;11.770;2022-12-07T14:07:18;4.53;;;3.57;;
59366;SDS011;45163;47.690;11.770;2022-12-07T14:12:22;8.50;;;4.40;;
59366;SDS011;45163;47.690;11.770;2022-12-07T14:14:49;9.20;;;5.27;;
59366;SDS011;45163;47.690;11.770;2022-12-07T14:17:19;10.40;;;4.53;;
59366;SDS011;45163;47.690;11.770;2022-12-07T14:25:21;5.77;;;4.43;;
59366;SDS011;45163;47.690;11.770;2022-12-07T14:30:27;5.33;;;3.77;;
59366;SDS011;45163;47.690;11.770;2022-12-07T14:33:02;6.37;;;4.20;;
59366;SDS011;45163;47.690;11.770;2022-12-07T14:35:31;3.97;;;3.37;;
59366;SDS011;45163;47.690;11.770;2022-12-07T14:37:57;4.80;;;2.90;;
59366;SDS011;45163;47.690;11.770;2022-12-07T14:40:25;4.90;;;2.73;;
59366;SDS011;45163;47.690;11.770;2022-12-07T14:42:57;4.43;;;3.43;;
59366;SDS011;45163;47.690;11.770;2022-12-07T14:45:27;5.23;;;3.37;;
59366;SDS011;45163;47.690;11.770;2022-12-07T14:47:53;4.30;;;3.33;;
59366;SDS011;45163;47.690;11.770;2022-12-07T14:50:20;4.70;;;3.63;;
59366;SDS011;45163;47.690;11.770;2022-12-07T14:52:52;5.07;;;3.77;;
59366;SDS011;45163;47.690;11.770;2022-12-07T14:55:29;5.23;;;4.17;;
59366;SDS011;45163;47.690;11.770;2022-12-07T14:57:56;6.90;;;4.50;;
59366;SDS011;45163;47.690;11.770;2022-12-07T15:00:23;8.27;;;5.60;;
59366;SDS011;45163;47.690;11.770;2022-12-07T15:02:50;7.33;;;5.23;;
59366;SDS011;45163;47.690;11.770;2022-12-07T15:05:17;10.60;;;6.70;;
59366;SDS011;45163;47.690;11.770;2022-12-07T15:07:44;10.70;;;6.97;;
59366;SDS011;45163;47.690;11.770;2022-12-07T15:10:24;8.53;;;5.87;;
59366;SDS011;45163;47.690;11.770;2022-12-07T15:12:57;8.93;;;6.00;;
59366;SDS011;45163;47.690;11.770;2022-12-07T15:15:43;9.17;;;6.23;;
59366;SDS011;45163;47.690;11.770;2022-12-07T15:18:09;9.33;;;6.30;;
59366;SDS011;45163;47.690;11.770;2022-12-07T15:20:35;11.33;;;6.77;;
59366;SDS011;45163;47.690;11.770;2022-12-07T15:23:01;8.90;;;6.33;;
59366;SDS011;45163;47.690;11.770;2022-12-07T15:25:27;13.23;;;8.70;;
59366;SDS011;45163;47.690;11.770;2022-12-07T15:27:53;9.30;;;6.33;;
59366;SDS011;45163;47.690;11.770;2022-12-07T15:30:19;11.30;;;7.00;;
59366;SDS011;45163;47.690;11.770;2022-12-07T15:32:52;9.40;;;5.67;;
59366;SDS011;45163;47.690;11.770;2022-12-07T15:35:18;9.33;;;6.33;;
59366;SDS011;45163;47.690;11.770;2022-12-07T15:37:45;12.00;;;7.50;;
59366;SDS011;45163;47.690;11.770;2022-12-07T15:40:11;9.63;;;6.70;;
59366;SDS011;45163;47.690;11.770;2022-12-07T15:42:38;10.03;;;6.60;;
59366;SDS011;45163;47.690;11.770;2022-12-07T15:45:05;11.87;;;8.27;;
59366;SDS011;45163;47.690;11.770;2022-12-07T15:50:03;14.57;;;10.73;;
59366;SDS011;45163;47.690;11.770;2022-12-07T15:52:31;15.47;;;10.03;;
59366;SDS011;45163;47.690;11.770;2022-12-07T15:54:57;17.40;;;11.40;;
59366;SDS011;45163;47.690;11.770;2022-12-07T15:57:25;23.83;;;14.60;;
59366;SDS011;45163;47.690;11.770;2022-12-07T15:59:52;15.50;;;9.67;;
59366;SDS011;45163;47.690;11.770;2022-12-07T16:02:19;10.57;;;7.97;;
59366;SDS011;45163;47.690;11.770;2022-12-07T16:04:45;11.37;;;7.33;;
59366;SDS011;45163;47.690;11.770;2022-12-07T16:07:11;7.83;;;5.90;;
59366;SDS011;45163;47.690;11.770;2022-12-07T16:09:40;9.47;;;5.80;;
59366;SDS011;45163;47.690;11.770;2022-12-07T16:12:06;6.70;;;5.30;;
59366;SDS011;45163;47.690;11.770;2022-12-07T16:14:32;8.37;;;5.90;;
59366;SDS011;45163;47.690;11.770;2022-12-07T16:16:58;9.20;;;5.60;;
59366;SDS011;45163;47.690;11.770;2022-12-07T16:19:24;7.37;;;5.67;;
59366;SDS011;45163;47.690;11.770;2022-12-07T16:21:50;7.90;;;5.53;;
59366;SDS011;45163;47.690;11.770;2022-12-07T16:24:17;7.00;;;4.90;;
59366;SDS011;45163;47.690;11.770;2022-12-07T16:26:43;8.63;;;5.57;;
59366;SDS011;45163;47.690;11.770;2022-12-07T16:29:12;8.33;;;5.17;;
59366;SDS011;45163;47.690;11.770;2022-12-07T16:31:39;7.67;;;5.60;;
59366;SDS011;45163;47.690;11.770;2022-12-07T16:34:06;8.47;;;6.40;;
59366;SDS011;45163;47.690;11.770;2022-12-07T16:36:32;7.97;;;5.70;;
59366;SDS011;45163;47.690;11.770;2022-12-07T16:38:58;8.93;;;5.50;;
59366;SDS011;45163;47.690;11.770;2022-12-07T16:41:25;7.33;;;5.20;;
59366;SDS011;45163;47.690;11.770;2022-12-07T16:43:51;9.23;;;6.10;;
59366;SDS011;45163;47.690;11.770;2022-12-07T16:46:17;9.20;;;6.37;;
59366;SDS011;45163;47.690;11.770;2022-12-07T16:48:44;14.90;;;6.47;;
59366;SDS011;45163;47.690;11.770;2022-12-07T16:51:11;13.67;;;6.17;;
59366;SDS011;45163;47.690;11.770;2022-12-07T16:53:39;10.67;;;5.93;;
59366;SDS011;45163;47.690;11.770;2022-12-07T16:56:14;10.90;;;6.73;;
59366;SDS011;45163;47.690;11.770;2022-12-07T16:58:42;8.83;;;6.03;;
59366;SDS011;45163;47.690;11.770;2022-12-07T17:01:13;7.50;;;5.63;;
59366;SDS011;45163;47.690;11.770;2022-12-07T17:03:40;7.23;;;4.93;;
59366;SDS011;45163;47.690;11.770;2022-12-07T17:08:43;7.70;;;5.23;;
59366;SDS011;45163;47.690;11.770;2022-12-07T17:11:17;8.73;;;5.13;;
59366;SDS011;45163;47.690;11.770;2022-12-07T17:13:53;7.43;;;4.90;;
59366;SDS011;45163;47.690;11.770;2022-12-07T17:16:37;6.93;;;4.67;;